Details From CYFB - Iqaluit
To CYYR - Goose Bay
Flight Number -
Tags decoded
Created
Modified
Stats Distance 675 nm / 1,251 km
Max Altitude 0 ft / 0 m
Waypoints 2
Social Downloads 5
Likes 1
Share VATSIM

Download

Looking for another format? Having issues loading an existing format? Contact us
Advertisement - Login to hide

Notes

Requested: CYFB CYYR

Route

CYFB CYYR

ID Type Via Altitude Latitude Longitude Leg Dist Tot Dist Heading (true) Name
O CYFB APT - 0 ft / 0 m 63.75657˚ -68.55606˚ - 0 nm - Iqaluit
O CYYR APT - 0 ft / 0 m 53.31882˚ -60.42389˚ 675 nm 675 nm 154° / 161° Goose Bay

Altitude Profile

Advertisement - Login to hide

Weather


0- 5 10 15 20 25 30 35+ Temperature / ° C

Clouds and Precipitation
Forecast for 2018-05-27 12:00 UTC. Updated 3 hours ago

Ground ~20,000 ft ~40,000 ft Winds

CYFB

Details ICAO CYFB (YFB)
Name Iqaluit
Region Canada
Timezone America/Iqaluit (UTC-4.0)
Stats Elevation 110 ft / 34 m (AMSL)
Location 63.756565° -68.556058°
Runways 1
Magnetic Variation 27.369° W

METAR

CYFB 271400Z 15011KT 30SM OVC021 M03/M07 A3008 RMK SC8 SLP192

Decode

TAF

TAF CYFB 271138Z 2712/2812 15005KT P6SM OVC025 TEMPO 2712/2717 P6SM -SN OVC015 FM271700 15010KT P6SM BKN020 OVC100 TEMPO 2717/2724 3SM -SN OVC012 RMK NXT FCST BY 271800Z

Decode

Departure Runways

ID Width Length Bearing (true) Bearing (mag) Surface Threshold Offset Overrun Length
17 200 ft / 61 m 8,605 ft / 2,623 m 135.58° 162.95° Asphalt 0 ft / 0 m 210 ft / 64 m
35 200 ft / 61 m 8,605 ft / 2,623 m 315.62° 342.99° Asphalt 0 ft / 0 m 243 ft / 74 m

CYYR

Details ICAO CYYR (YYR)
Name Goose Bay
Region Canada
Timezone America/Goose_Bay (UTC-3.0)
Stats Elevation 160 ft / 49 m (AMSL)
Location 53.318820° -60.423890°
Runways 2
Magnetic Variation 20.867° W

METAR

CYYR 271400Z 32002KT 15SM FEW050 FEW270 05/M07 A3024 RMK CF1CI2 SLP242

Decode

TAF

TAF CYYR 271130Z 2712/2812 31010KT P6SM SCT030 TEMPO 2712/2724 BKN030 FM280000 VRB03KT P6SM FEW120 SCT200 RMK NXT FCST BY 271800Z

Decode

Destination Runways

ID Width Length Bearing (true) Bearing (mag) Surface Threshold Offset Overrun Length
08 209 ft / 64 m 11,055 ft / 3,369 m 54.70° 75.57° Asphalt 0 ft / 0 m 1,000 ft / 305 m
16 200 ft / 61 m 9,515 ft / 2,900 m 132.96° 153.83° Asphalt 0 ft / 0 m 0 ft / 0 m
26 209 ft / 64 m 11,055 ft / 3,369 m 234.73° 255.60° Asphalt 0 ft / 0 m 1,000 ft / 305 m
34 200 ft / 61 m 9,515 ft / 2,900 m 312.99° 333.86° Asphalt 0 ft / 0 m 500 ft / 152 m

Popular Alternatives